Time;durP1;ratioP1;P1;durP2;ratioP2;P2;SDS_P1;SDS_P2;PMS_P1;PMS_P2;Temp;Humidity;BMP_temperature;BMP_pressure;BME280_temperature;BME280_humidity;BME280_pressure;Samples;Min_cycle;Max_cycle;Signal;HPM_P1;HPM_P2
2023/06/15 00:00:06;;;;;;;5.40;2.60;;;24.00;37.10;;;;;;6238533;28;20109;-66
2023/06/15 00:03:12;;;;;;;7.75;3.08;;;23.80;37.10;;;;;;6239560;28;20072;-67
2023/06/15 00:06:13;;;;;;;5.03;2.45;;;23.80;37.20;;;;;;6239974;28;20060;-66
2023/06/15 00:09:14;;;;;;;4.88;2.55;;;23.70;37.30;;;;;;6239295;28;20021;-67
2023/06/15 00:12:15;;;;;;;4.35;2.70;;;23.70;37.70;;;;;;6239390;28;20488;-66
2023/06/15 00:15:16;;;;;;;18.45;4.78;;;23.60;37.90;;;;;;6239453;28;20032;-67
2023/06/15 00:18:17;;;;;;;6.30;2.60;;;23.50;38.10;;;;;;6238014;28;20032;-67
2023/06/15 00:21:18;;;;;;;5.00;2.65;;;23.40;38.30;;;;;;6239511;28;20067;-66
2023/06/15 00:24:19;;;;;;;3.97;2.50;;;23.40;38.40;;;;;;6239524;28;20059;-67
2023/06/15 00:27:20;;;;;;;5.40;2.80;;;23.40;38.70;;;;;;6238360;28;20045;-67
2023/06/15 00:30:20;;;;;;;5.40;2.72;;;23.40;39.10;;;;;;6239456;28;20624;-67
2023/06/15 00:33:21;;;;;;;4.60;2.70;;;23.30;39.30;;;;;;6239547;28;20036;-66
2023/06/15 00:36:24;;;;;;;3.63;2.80;;;23.30;39.40;;;;;;6239225;28;20423;-66
2023/06/15 00:39:24;;;;;;;4.53;2.47;;;23.30;39.60;;;;;;6237440;28;20048;-66
2023/06/15 00:42:29;;;;;;;4.20;2.65;;;23.20;39.60;;;;;;6237268;28;20159;-67
2023/06/15 00:45:30;;;;;;;4.47;2.75;;;23.20;39.90;;;;;;6237435;28;20120;-67
2023/06/15 00:48:31;;;;;;;10.80;2.90;;;23.20;39.90;;;;;;6237499;28;20052;-67
2023/06/15 00:51:34;;;;;;;5.35;3.03;;;23.20;40.00;;;;;;6237203;28;20095;-67
2023/06/15 00:54:36;;;;;;;9.13;3.05;;;23.20;40.00;;;;;;6237243;28;20471;-67
2023/06/15 00:57:37;;;;;;;12.80;3.55;;;23.10;40.00;;;;;;6237493;28;20112;-68
2023/06/15 01:00:37;;;;;;;10.50;2.67;;;23.10;40.30;;;;;;6237524;28;20155;-67
2023/06/15 01:03:40;;;;;;;4.82;3.15;;;23.00;40.60;;;;;;6241950;28;20025;-66
2023/06/15 01:06:52;;;;;;;7.13;3.47;;;23.00;40.80;;;;;;6242264;28;20113;-68
2023/06/15 01:09:53;;;;;;;6.90;3.45;;;22.90;40.90;;;;;;6243183;28;20116;-66
2023/06/15 01:12:54;;;;;;;5.28;3.20;;;22.90;41.20;;;;;;6243696;28;20025;-66
2023/06/15 01:15:57;;;;;;;9.48;2.70;;;22.90;41.40;;;;;;6242129;28;20069;-67
2023/06/15 01:19:01;;;;;;;5.80;3.00;;;22.80;41.50;;;;;;6225654;28;20130;-68
2023/06/15 01:22:14;;;;;;;5.82;3.05;;;22.80;41.70;;;;;;6243370;28;20037;-66
2023/06/15 01:25:33;;;;;;;5.72;3.10;;;22.80;41.80;;;;;;6243804;28;20068;-66
2023/06/15 01:28:41;;;;;;;6.53;3.10;;;22.80;42.00;;;;;;6242174;28;20485;-68
2023/06/15 01:31:43;;;;;;;6.50;3.17;;;22.70;42.10;;;;;;6243350;28;20037;-68
2023/06/15 01:34:44;;;;;;;6.20;2.65;;;22.70;42.30;;;;;;6241933;28;20037;-68
2023/06/15 01:37:45;;;;;;;8.02;2.95;;;22.70;42.40;;;;;;6241857;28;20101;-69
2023/06/15 01:40:49;;;;;;;5.05;2.78;;;22.60;42.70;;;;;;6243350;28;20055;-67
2023/06/15 01:43:51;;;;;;;4.40;2.97;;;22.60;42.90;;;;;;6241682;28;20638;-67
2023/06/15 01:46:52;;;;;;;6.90;3.08;;;22.50;42.80;;;;;;6241508;28;20500;-67
2023/06/15 01:49:54;;;;;;;6.78;2.88;;;22.50;42.80;;;;;;6241720;28;20036;-67
2023/06/15 01:52:55;;;;;;;5.43;3.03;;;22.40;42.90;;;;;;6241103;28;20728;-67
2023/06/15 01:55:58;;;;;;;8.23;3.25;;;22.40;43.20;;;;;;6241229;28;20041;-66
2023/06/15 01:58:59;;;;;;;6.53;3.42;;;22.40;43.60;;;;;;6241650;28;20293;-66
2023/06/15 02:02:00;;;;;;;4.78;2.70;;;22.40;43.80;;;;;;6240776;28;20189;-67
2023/06/15 02:05:03;;;;;;;6.32;3.20;;;22.30;44.00;;;;;;6242756;28;20074;-67
2023/06/15 02:08:04;;;;;;;4.38;2.63;;;22.30;44.10;;;;;;6226763;28;20080;-67
2023/06/15 02:11:05;;;;;;;4.50;3.17;;;22.20;44.20;;;;;;6216240;28;20150;-68
2023/06/15 02:14:06;;;;;;;6.53;3.25;;;22.20;44.30;;;;;;6215066;28;20053;-67
2023/06/15 02:17:07;;;;;;;13.38;3.78;;;22.10;44.20;;;;;;6241268;28;20182;-66
2023/06/15 02:20:09;;;;;;;7.53;3.17;;;22.00;44.30;;;;;;6241229;28;20034;-67
2023/06/15 02:23:11;;;;;;;5.18;3.05;;;22.00;44.40;;;;;;6240424;28;20052;-67
2023/06/15 02:26:12;;;;;;;8.90;3.10;;;21.90;44.60;;;;;;6240909;28;20059;-67
2023/06/15 02:29:12;;;;;;;7.32;3.17;;;21.90;45.10;;;;;;6240609;28;20355;-67
2023/06/15 02:32:31;;;;;;;11.30;3.05;;;21.80;45.20;;;;;;6240216;28;20033;-66
2023/06/15 02:35:32;;;;;;;6.80;2.67;;;21.80;45.50;;;;;;6240684;28;20033;-68
2023/06/15 02:38:34;;;;;;;4.65;2.85;;;21.70;45.60;;;;;;6240627;28;20124;-66
2023/06/15 02:41:34;;;;;;;4.45;2.60;;;21.70;45.80;;;;;;6240523;28;20043;-66
2023/06/15 02:44:36;;;;;;;7.05;3.42;;;21.60;46.00;;;;;;6241856;28;20033;-66
2023/06/15 02:47:37;;;;;;;5.07;3.17;;;21.60;46.30;;;;;;6241557;28;20041;-68
2023/06/15 02:50:38;;;;;;;5.38;3.00;;;21.50;46.40;;;;;;6240789;28;20033;-66
2023/06/15 02:53:47;;;;;;;;;;;21.50;46.60;;;;;;6240814;28;20039;-66
2023/06/15 02:56:48;;;;;;;4.28;2.75;;;21.40;46.80;;;;;;6223852;28;19913;-68
2023/06/15 02:59:50;;;;;;;7.57;3.13;;;21.30;46.90;;;;;;6240139;28;20036;-67
2023/06/15 03:02:54;;;;;;;8.43;2.72;;;21.30;47.10;;;;;;6239585;28;20467;-67
2023/06/15 03:05:57;;;;;;;7.63;3.33;;;21.30;47.20;;;;;;6239932;28;20057;-67
2023/06/15 03:08:58;;;;;;;3.92;2.92;;;21.30;47.40;;;;;;6218390;28;20117;-67
2023/06/15 03:12:03;;;;;;;16.35;3.30;;;21.20;47.60;;;;;;6228775;28;20805;-67
2023/06/15 03:15:10;;;;;;;5.25;3.53;;;21.20;47.80;;;;;;6239766;28;20454;-67
2023/06/15 03:18:13;;;;;;;4.22;2.72;;;21.10;47.90;;;;;;6239160;28;20087;-65
2023/06/15 03:21:15;;;;;;;7.25;3.33;;;21.10;48.00;;;;;;6239112;28;20029;-68
2023/06/15 03:24:16;;;;;;;6.60;3.60;;;21.10;48.10;;;;;;6240270;28;20144;-67
2023/06/15 03:27:17;;;;;;;8.18;3.33;;;21.10;48.10;;;;;;6239219;28;20037;-67
2023/06/15 03:30:20;;;;;;;6.60;3.20;;;21.10;48.20;;;;;;6240595;28;20041;-67
2023/06/15 03:33:21;;;;;;;5.05;3.08;;;21.10;48.50;;;;;;6238601;28;20026;-67
2023/06/15 03:36:25;;;;;;;6.05;3.80;;;21.10;48.60;;;;;;6239321;28;20037;-66
2023/06/15 03:39:28;;;;;;;4.15;3.00;;;21.10;48.50;;;;;;6239197;28;20122;-68
2023/06/15 03:42:28;;;;;;;5.75;3.30;;;21.10;48.40;;;;;;6238781;28;20033;-66
2023/06/15 03:45:29;;;;;;;7.20;3.33;;;21.10;48.50;;;;;;6239019;28;20030;-66
2023/06/15 03:48:30;;;;;;;5.32;3.40;;;21.00;48.60;;;;;;6238778;28;20025;-67
2023/06/15 03:51:33;;;;;;;7.70;3.78;;;21.00;48.60;;;;;;6238295;28;20537;-67
2023/06/15 03:54:33;;;;;;;6.95;3.60;;;21.00;48.50;;;;;;6238588;28;20474;-66
2023/06/15 03:57:34;;;;;;;6.18;3.42;;;21.00;48.60;;;;;;6238619;28;20021;-68
2023/06/15 04:00:35;;;;;;;6.25;3.30;;;21.00;48.70;;;;;;6221781;28;20094;-67
2023/06/15 04:03:36;;;;;;;9.00;3.75;;;21.00;48.80;;;;;;6238147;28;20033;-66
2023/06/15 04:06:37;;;;;;;6.40;3.42;;;21.00;48.90;;;;;;6237596;28;20154;-66
2023/06/15 04:09:38;;;;;;;10.55;3.53;;;21.00;48.90;;;;;;6224152;28;20117;-68
2023/06/15 04:12:39;;;;;;;5.35;3.22;;;21.00;48.90;;;;;;6213348;28;20034;-66
2023/06/15 04:15:41;;;;;;;7.22;3.35;;;21.00;49.00;;;;;;6213555;28;20029;-67
2023/06/15 04:18:43;;;;;;;6.18;3.22;;;21.00;49.00;;;;;;6229714;28;20041;-67
2023/06/15 04:21:47;;;;;;;7.13;4.00;;;21.00;48.90;;;;;;6213563;28;20084;-67
2023/06/15 04:24:48;;;;;;;9.52;4.00;;;21.00;48.90;;;;;;6229807;28;20174;-67
2023/06/15 04:27:49;;;;;;;7.57;3.65;;;21.00;48.90;;;;;;6213613;28;20228;-69
2023/06/15 04:31:10;;;;;;;10.95;3.88;;;21.00;48.90;;;;;;6228292;28;20079;-66
2023/06/15 04:34:12;;;;;;;9.33;4.70;;;20.90;48.90;;;;;;6238350;28;20053;-68
2023/06/15 04:37:13;;;;;;;12.45;3.70;;;20.80;49.10;;;;;;6236951;28;20030;-67
2023/06/15 04:40:20;;;;;;;9.32;3.45;;;20.70;49.90;;;;;;6238083;28;20139;-67
2023/06/15 04:43:21;;;;;;;6.88;3.92;;;20.60;49.40;;;;;;6237612;28;20037;-67
2023/06/15 04:46:23;;;;;;;5.93;3.60;;;20.50;49.60;;;;;;6237881;28;20128;-68
2023/06/15 04:49:25;;;;;;;5.15;3.40;;;20.50;49.70;;;;;;6237597;28;20034;-66
2023/06/15 04:52:26;;;;;;;6.18;3.85;;;20.40;49.80;;;;;;6238668;28;20061;-67
2023/06/15 04:55:27;;;;;;;11.23;3.97;;;20.40;49.90;;;;;;6239339;28;20849;-68
2023/06/15 04:58:29;;;;;;;8.90;3.80;;;20.50;50.00;;;;;;6238270;28;20041;-68
2023/06/15 05:01:31;;;;;;;12.00;3.38;;;20.50;50.00;;;;;;6237305;28;20133;-68
2023/06/15 05:04:33;;;;;;;8.90;4.15;;;20.60;50.10;;;;;;6237372;28;20087;-67
2023/06/15 05:07:34;;;;;;;7.13;3.50;;;20.60;50.00;;;;;;6237508;28;20033;-67
2023/06/15 05:10:35;;;;;;;7.05;3.83;;;20.60;50.00;;;;;;6215608;28;20045;-68
2023/06/15 05:13:36;;;;;;;9.65;4.07;;;20.70;50.10;;;;;;6212633;28;20054;-67
2023/06/15 05:16:37;;;;;;;6.63;4.20;;;20.70;50.10;;;;;;6212982;28;20036;-67
2023/06/15 05:19:38;;;;;;;10.15;3.92;;;20.80;50.20;;;;;;6212479;28;20030;-68
2023/06/15 05:22:40;;;;;;;7.28;3.80;;;20.80;50.20;;;;;;6212375;28;20037;-66
2023/06/15 05:25:41;;;;;;;11.57;4.75;;;20.90;50.40;;;;;;6215755;28;20037;-66
2023/06/15 05:28:42;;;;;;;13.18;4.55;;;20.90;50.30;;;;;;6237305;28;20045;-68
2023/06/15 05:31:43;;;;;;;10.15;4.43;;;21.00;50.20;;;;;;6237405;28;20029;-67
2023/06/15 05:34:44;;;;;;;6.63;4.30;;;21.10;50.10;;;;;;6237759;28;20025;-68
2023/06/15 05:37:45;;;;;;;10.32;4.03;;;21.20;50.10;;;;;;6221122;28;20103;-67
2023/06/15 05:40:46;;;;;;;13.50;4.53;;;21.30;50.00;;;;;;6237434;28;20076;-67
2023/06/15 05:43:47;;;;;;;7.88;4.05;;;21.30;50.00;;;;;;6237582;28;20033;-69
2023/06/15 05:46:48;;;;;;;12.23;5.10;;;21.40;49.90;;;;;;6238511;28;20034;-69
2023/06/15 05:49:51;;;;;;;7.10;4.07;;;21.40;49.80;;;;;;6243153;28;20030;-69
2023/06/15 05:52:52;;;;;;;9.50;4.32;;;21.40;49.80;;;;;;6242658;28;20031;-68
2023/06/15 05:55:53;;;;;;;10.73;4.10;;;21.60;49.80;;;;;;6242348;28;20324;-66
2023/06/15 05:58:54;;;;;;;11.38;4.15;;;21.60;49.60;;;;;;6243205;28;20030;-67
2023/06/15 06:01:55;;;;;;;8.55;4.22;;;21.60;49.40;;;;;;6240739;28;20025;-68
2023/06/15 06:04:56;;;;;;;8.52;3.72;;;21.70;49.30;;;;;;6241369;28;20030;-68
2023/06/15 06:07:58;;;;;;;6.40;4.05;;;21.80;49.20;;;;;;6240806;28;20060;-66
2023/06/15 06:10:59;;;;;;;6.45;3.50;;;21.90;49.10;;;;;;6241291;28;20452;-67
2023/06/15 06:14:10;;;;;;;10.55;3.92;;;22.00;48.90;;;;;;6240906;28;20037;-66
2023/06/15 06:17:11;;;;;;;6.30;3.65;;;22.10;48.70;;;;;;6240986;28;20674;-68
2023/06/15 06:20:12;;;;;;;7.30;4.28;;;22.20;48.40;;;;;;6241184;28;20045;-68
2023/06/15 06:23:13;;;;;;;6.50;3.58;;;22.30;48.20;;;;;;6240106;28;20184;-67
2023/06/15 06:26:14;;;;;;;9.32;3.90;;;22.40;47.90;;;;;;6240623;28;20477;-68
2023/06/15 06:29:15;;;;;;;6.43;3.90;;;22.50;47.70;;;;;;6240869;28;20072;-67
2023/06/15 06:32:17;;;;;;;6.75;3.83;;;22.60;47.50;;;;;;6242522;28;20025;-68
2023/06/15 06:35:18;;;;;;;8.52;4.10;;;22.60;47.20;;;;;;6242761;28;20021;-66
2023/06/15 06:38:19;;;;;;;7.32;4.00;;;22.60;47.20;;;;;;6242266;28;20040;-66
2023/06/15 06:41:20;;;;;;;6.80;3.80;;;22.80;47.20;;;;;;6239886;28;20037;-71
2023/06/15 06:44:21;;;;;;;8.90;3.75;;;22.90;47.00;;;;;;6241833;28;20123;-67
2023/06/15 06:47:22;;;;;;;11.52;4.07;;;23.00;46.80;;;;;;6240301;28;20135;-69
2023/06/15 06:50:23;;;;;;;9.23;3.95;;;23.10;46.50;;;;;;6242141;28;20044;-68
2023/06/15 06:53:25;;;;;;;7.15;3.85;;;23.20;46.40;;;;;;6241369;28;20474;-69
2023/06/15 06:56:26;;;;;;;9.18;3.80;;;23.30;46.30;;;;;;6241764;28;20048;-67
2023/06/15 06:59:27;;;;;;;6.07;3.83;;;23.40;46.20;;;;;;6241168;28;20577;-68
2023/06/15 07:02:28;;;;;;;12.27;3.90;;;23.50;45.90;;;;;;6241433;28;20453;-70
2023/06/15 07:05:28;;;;;;;7.10;3.30;;;23.60;45.60;;;;;;6241418;28;20481;-67
2023/06/15 07:08:29;;;;;;;11.50;4.18;;;23.70;45.20;;;;;;6240966;28;20040;-67
2023/06/15 07:11:30;;;;;;;8.27;3.90;;;23.80;44.70;;;;;;6239717;28;20034;-67
2023/06/15 07:14:31;;;;;;;10.55;3.58;;;23.90;44.50;;;;;;6240224;28;20052;-67
2023/06/15 07:17:32;;;;;;;8.60;3.28;;;24.00;44.30;;;;;;6240440;28;20036;-68
2023/06/15 07:20:33;;;;;;;6.05;3.13;;;24.10;44.10;;;;;;6241476;28;20403;-67
2023/06/15 07:23:34;;;;;;;7.60;3.95;;;24.10;43.70;;;;;;6240822;28;20040;-69
2023/06/15 07:26:35;;;;;;;4.57;3.13;;;24.20;43.50;;;;;;6240064;28;20177;-68
2023/06/15 07:29:36;;;;;;;8.13;3.35;;;24.30;43.20;;;;;;6239813;28;20391;-68
2023/06/15 07:32:36;;;;;;;6.25;3.65;;;24.50;43.10;;;;;;6240694;28;20053;-68
2023/06/15 07:35:37;;;;;;;8.18;3.53;;;24.50;42.70;;;;;;6240953;28;20462;-71
2023/06/15 07:38:40;;;;;;;6.38;4.03;;;24.60;42.70;;;;;;6241043;28;20057;-74
2023/06/15 07:41:41;;;;;;;17.40;4.20;;;24.70;42.70;;;;;;6240766;28;20026;-72
2023/06/15 07:44:42;;;;;;;23.40;4.65;;;24.70;42.70;;;;;;6240981;28;20055;-72
2023/06/15 07:47:43;;;;;;;6.40;3.63;;;24.80;42.70;;;;;;6239209;28;20160;-71
2023/06/15 07:50:46;;;;;;;17.35;4.65;;;24.90;42.70;;;;;;6239274;28;20246;-71
2023/06/15 07:53:47;;;;;;;11.15;4.18;;;25.00;42.70;;;;;;6239615;28;20045;-73
2023/06/15 07:56:48;;;;;;;11.00;3.88;;;25.10;42.40;;;;;;6240492;28;20029;-72
2023/06/15 07:59:49;;;;;;;11.27;4.05;;;25.20;42.00;;;;;;6240227;28;20030;-71
2023/06/15 08:02:50;;;;;;;13.10;3.95;;;25.30;41.70;;;;;;6240101;28;20052;-71
2023/06/15 08:05:51;;;;;;;15.00;4.13;;;25.50;41.50;;;;;;6240030;28;20025;-71
2023/06/15 08:08:52;;;;;;;6.13;3.70;;;25.60;41.20;;;;;;6239665;28;20033;-70
2023/06/15 08:11:53;;;;;;;5.88;3.83;;;25.70;40.80;;;;;;6239288;28;20069;-73
2023/06/15 08:14:54;;;;;;;9.13;3.42;;;25.80;40.60;;;;;;6240392;28;20029;-70
2023/06/15 08:17:55;;;;;;;12.50;4.18;;;25.90;40.40;;;;;;6238042;28;20029;-72
2023/06/15 08:20:56;;;;;;;11.27;3.58;;;25.90;40.20;;;;;;6237844;28;20111;-70
2023/06/15 08:23:57;;;;;;;9.60;3.75;;;26.00;40.10;;;;;;6239252;28;20029;-73
2023/06/15 08:27:00;;;;;;;8.45;4.07;;;26.20;39.90;;;;;;6238253;28;20030;-72
2023/06/15 08:30:01;;;;;;;7.53;4.03;;;26.20;39.50;;;;;;6237690;28;20091;-71
2023/06/15 08:33:02;;;;;;;8.57;3.80;;;26.30;39.50;;;;;;6237221;28;20438;-73
2023/06/15 08:36:03;;;;;;;5.75;3.30;;;26.30;39.30;;;;;;6239919;28;20047;-72
2023/06/15 08:39:04;;;;;;;9.63;3.75;;;26.30;39.10;;;;;;6240428;28;20037;-71
2023/06/15 08:42:07;;;;;;;6.07;3.45;;;26.40;39.10;;;;;;6238400;28;20136;-72
2023/06/15 08:45:08;;;;;;;9.60;3.78;;;26.50;39.00;;;;;;6238170;28;20440;-73
2023/06/15 08:48:14;;;;;;;10.63;3.40;;;26.60;38.90;;;;;;6239511;28;20056;-71
2023/06/15 08:51:16;;;;;;;7.30;3.75;;;26.60;38.70;;;;;;6239776;28;20478;-71
2023/06/15 08:54:20;;;;;;;8.77;3.83;;;26.70;38.50;;;;;;6238082;28;20497;-71
2023/06/15 08:57:21;;;;;;;8.98;3.55;;;26.80;38.50;;;;;;6238100;28;20454;-72
2023/06/15 09:00:22;;;;;;;6.13;3.50;;;26.90;38.10;;;;;;6239116;28;20029;-74
2023/06/15 09:03:24;;;;;;;8.05;3.75;;;27.00;38.00;;;;;;6239553;28;20029;-72
2023/06/15 09:06:25;;;;;;;6.60;3.70;;;27.10;37.80;;;;;;6237531;28;20030;-71
2023/06/15 09:09:26;;;;;;;9.15;3.80;;;27.20;37.60;;;;;;6239120;28;20478;-71
2023/06/15 09:12:27;;;;;;;8.43;3.75;;;27.40;37.40;;;;;;6238636;28;20060;-72
2023/06/15 09:15:29;;;;;;;5.68;3.08;;;27.50;37.00;;;;;;6239097;28;20021;-71
2023/06/15 09:18:45;;;;;;;12.10;3.83;;;27.60;36.80;;;;;;6237430;28;20056;-73
2023/06/15 09:21:51;;;;;;;13.75;4.93;;;27.70;36.50;;;;;;6239067;28;20024;-71
2023/06/15 09:24:52;;;;;;;16.65;4.43;;;27.90;36.30;;;;;;6225956;28;20034;-71
2023/06/15 09:27:57;;;;;;;15.77;3.72;;;28.00;36.00;;;;;;6243846;28;20421;-70
2023/06/15 09:30:59;;;;;;;9.45;4.70;;;28.10;36.00;;;;;;6225664;28;20037;-72
2023/06/15 09:34:03;;;;;;;5.72;3.63;;;28.10;36.10;;;;;;6242272;28;20109;-70
2023/06/15 09:37:16;;;;;;;9.10;3.50;;;28.20;36.20;;;;;;6243890;28;20022;-70
2023/06/15 09:40:17;;;;;;;7.72;3.90;;;28.20;36.30;;;;;;6242507;28;20030;-71
2023/06/15 09:43:18;;;;;;;11.55;4.13;;;28.30;36.10;;;;;;6243568;28;20033;-72
2023/06/15 09:46:20;;;;;;;10.18;3.85;;;28.30;36.00;;;;;;6243905;28;20033;-72
2023/06/15 09:49:23;;;;;;;13.13;4.05;;;28.30;36.00;;;;;;6242680;28;20485;-70
2023/06/15 09:52:24;;;;;;;12.60;4.85;;;28.40;36.00;;;;;;6241920;28;20034;-72
2023/06/15 09:55:25;;;;;;;5.60;3.60;;;28.50;36.00;;;;;;6243900;28;20033;-72
2023/06/15 09:58:26;;;;;;;6.70;3.58;;;28.60;35.90;;;;;;6242100;28;20029;-72
2023/06/15 10:01:30;;;;;;;10.80;3.78;;;28.60;35.70;;;;;;6241721;28;20037;-72
2023/06/15 10:04:35;;;;;;;9.35;4.30;;;28.70;35.70;;;;;;6241599;28;20497;-72
2023/06/15 10:07:38;;;;;;;6.82;3.58;;;28.70;35.80;;;;;;6240246;28;20108;-72
2023/06/15 10:10:42;;;;;;;10.27;3.80;;;28.70;35.60;;;;;;6244179;28;20040;-72
2023/06/15 10:14:17;;;;;;;9.77;3.72;;;28.80;35.50;;;;;;6243427;28;20320;-71
2023/06/15 10:17:23;;;;;;;7.05;3.40;;;28.90;35.40;;;;;;6240722;28;20501;-72
2023/06/15 10:20:24;;;;;;;6.57;4.00;;;29.00;35.00;;;;;;6241823;28;20033;-72
2023/06/15 10:23:29;;;;;;;10.20;4.45;;;29.00;34.80;;;;;;6242881;28;20092;-72
2023/06/15 10:26:31;;;;;;;6.80;4.07;;;29.00;35.00;;;;;;6243112;28;20313;-72
2023/06/15 10:29:54;;;;;;;5.75;3.83;;;29.10;34.80;;;;;;6241055;28;20044;-71
2023/06/15 10:33:03;;;;;;;8.73;3.63;;;29.20;34.90;;;;;;6224127;28;20112;-72
2023/06/15 10:36:19;;;;;;;9.30;4.35;;;29.20;35.40;;;;;;6240312;28;20029;-72
2023/06/15 10:39:29;;;;;;;13.15;4.00;;;29.30;34.60;;;;;;6242611;28;20061;-72
2023/06/15 10:42:42;;;;;;;7.75;3.75;;;29.50;34.40;;;;;;6241807;28;20186;-72
2023/06/15 10:45:43;;;;;;;4.47;3.47;;;29.60;34.10;;;;;;6242396;28;20095;-72
2023/06/15 10:48:43;;;;;;;7.13;3.75;;;29.80;33.80;;;;;;6240213;28;20553;-71
2023/06/15 10:51:51;;;;;;;14.98;3.75;;;30.00;32.80;;;;;;6224240;28;20093;-72
2023/06/15 10:54:52;;;;;;;12.18;4.63;;;30.00;32.30;;;;;;6242216;28;20108;-71
2023/06/15 10:58:15;;;;;;;7.72;3.72;;;30.20;31.30;;;;;;6241936;28;20074;-72
2023/06/15 11:01:23;;;;;;;9.45;3.40;;;30.20;31.10;;;;;;6239758;28;20368;-72
2023/06/15 11:04:30;;;;;;;8.45;3.92;;;30.30;31.00;;;;;;6241793;28;20049;-71
2023/06/15 11:07:40;;;;;;;13.25;4.25;;;30.60;30.90;;;;;;6241191;28;20506;-71
2023/06/15 11:10:43;;;;;;;5.38;3.85;;;31.60;30.30;;;;;;6241526;28;20025;-71
2023/06/15 11:14:04;;;;;;;10.10;3.95;;;32.50;29.40;;;;;;6241123;28;20469;-72
2023/06/15 11:17:06;;;;;;;10.15;4.38;;;33.20;28.60;;;;;;6240023;28;20076;-71
2023/06/15 11:20:27;;;;;;;13.00;4.35;;;33.50;28.20;;;;;;6241786;28;20104;-72
2023/06/15 11:23:32;;;;;;;7.95;3.67;;;34.00;28.00;;;;;;6240794;28;20105;-73
2023/06/15 11:26:40;;;;;;;6.63;4.10;;;34.80;27.50;;;;;;6241353;28;20033;-71
2023/06/15 11:29:42;;;;;;;6.07;3.83;;;34.90;27.10;;;;;;6241171;28;21229;-72
2023/06/15 11:32:44;;;;;;;9.07;3.60;;;35.00;26.80;;;;;;6240535;28;20025;-72
2023/06/15 11:35:44;;;;;;;12.25;3.40;;;35.20;26.00;;;;;;6223240;28;20025;-71
2023/06/15 11:38:45;;;;;;;16.67;3.30;;;35.10;25.60;;;;;;6239226;28;20052;-73
2023/06/15 11:41:50;;;;;;;8.80;3.60;;;34.90;24.70;;;;;;6239001;28;20316;-72
2023/06/15 11:44:52;;;;;;;4.15;3.00;;;34.80;24.90;;;;;;6240699;28;20065;-71
2023/06/15 11:47:54;;;;;;;5.82;3.13;;;35.20;24.40;;;;;;6240745;28;20089;-72
2023/06/15 11:50:56;;;;;;;8.75;3.10;;;35.70;24.10;;;;;;6222581;28;20116;-70
2023/06/15 11:53:57;;;;;;;10.68;3.15;;;35.70;23.40;;;;;;6238519;28;20034;-72
2023/06/15 11:56:58;;;;;;;10.93;3.15;;;35.80;23.50;;;;;;6239242;28;20088;-73
2023/06/15 12:00:00;;;;;;;7.55;3.15;;;36.40;23.30;;;;;;6238728;28;20040;-72
2023/06/15 12:03:07;;;;;;;6.55;3.00;;;36.70;22.70;;;;;;6238440;28;20143;-71
2023/06/15 12:06:08;;;;;;;9.40;3.05;;;36.80;22.60;;;;;;6240473;28;20060;-72
2023/06/15 12:09:10;;;;;;;10.07;3.40;;;36.90;22.50;;;;;;6225788;28;20033;-73
2023/06/15 12:12:31;;;;;;;5.13;3.28;;;37.20;21.90;;;;;;6239884;28;20029;-72
2023/06/15 12:15:32;;;;;;;9.93;3.80;;;37.20;22.00;;;;;;6240568;28;20087;-72
2023/06/15 12:18:33;;;;;;;6.30;2.80;;;37.50;21.90;;;;;;6238950;28;20410;-72
2023/06/15 12:21:37;;;;;;;5.57;3.15;;;37.60;21.40;;;;;;6238171;28;20069;-71
2023/06/15 12:24:39;;;;;;;8.35;3.25;;;37.10;21.60;;;;;;6239809;28;20657;-73
2023/06/15 12:27:42;;;;;;;6.15;3.55;;;36.60;22.20;;;;;;6239679;28;20115;-74
2023/06/15 12:30:44;;;;;;;13.68;3.38;;;36.30;22.50;;;;;;6240197;28;20037;-72
2023/06/15 12:33:50;;;;;;;12.48;3.85;;;36.50;22.50;;;;;;6237834;28;20110;-73
2023/06/15 12:36:55;;;;;;;8.45;3.50;;;36.50;22.30;;;;;;6238606;28;20032;-72
2023/06/15 12:39:56;;;;;;;6.80;3.45;;;36.00;22.70;;;;;;6239670;28;20025;-73
2023/06/15 12:43:01;;;;;;;5.78;3.15;;;35.90;22.90;;;;;;6238014;28;20116;-72
2023/06/15 12:46:02;;;;;;;15.25;3.05;;;35.80;22.80;;;;;;6239670;28;20037;-71
2023/06/15 12:49:07;;;;;;;6.18;3.00;;;35.50;22.90;;;;;;6239091;28;20063;-72
2023/06/15 12:52:08;;;;;;;5.22;3.10;;;35.70;22.80;;;;;;6237349;28;20065;-72
2023/06/15 12:55:09;;;;;;;5.43;2.90;;;36.00;22.70;;;;;;6239636;28;20038;-72
2023/06/15 12:58:10;;;;;;;5.75;2.85;;;36.40;22.10;;;;;;6243756;28;20025;-72
2023/06/15 13:01:10;;;;;;;6.55;3.42;;;36.60;21.70;;;;;;6247317;28;20316;-72
2023/06/15 13:04:11;;;;;;;10.65;3.33;;;36.60;21.60;;;;;;6247399;28;20567;-72
2023/06/15 13:07:12;;;;;;;15.48;3.85;;;36.70;21.60;;;;;;6247301;28;20098;-71
2023/06/15 13:10:14;;;;;;;8.73;3.00;;;37.20;21.40;;;;;;6246751;28;20330;-72
2023/06/15 13:13:16;;;;;;;5.82;3.33;;;38.10;20.80;;;;;;6246946;28;20104;-72
2023/06/15 13:16:16;;;;;;;11.60;3.33;;;38.70;20.20;;;;;;6246136;28;20048;-72
2023/06/15 13:19:18;;;;;;;4.53;2.97;;;38.80;20.10;;;;;;6247406;28;20060;-71
2023/06/15 13:22:19;;;;;;;5.63;3.20;;;38.60;20.10;;;;;;6245285;28;20390;-72
2023/06/15 13:25:20;;;;;;;5.20;3.20;;;37.80;20.50;;;;;;6245633;28;20041;-73
2023/06/15 13:28:21;;;;;;;10.00;3.08;;;37.40;21.00;;;;;;6247273;28;20040;-74
2023/06/15 13:31:21;;;;;;;4.15;2.90;;;37.90;20.70;;;;;;6245203;28;20129;-73
2023/06/15 13:34:22;;;;;;;8.93;3.17;;;38.70;20.20;;;;;;6246930;28;20087;-73
2023/06/15 13:37:23;;;;;;;8.07;3.05;;;39.50;19.70;;;;;;6247294;28;20033;-72
2023/06/15 13:40:24;;;;;;;8.27;3.28;;;40.40;19.30;;;;;;6247171;28;20115;-73
2023/06/15 13:43:25;;;;;;;5.13;3.13;;;41.10;18.40;;;;;;6247421;28;20135;-71
2023/06/15 13:46:27;;;;;;;4.63;3.03;;;40.80;18.60;;;;;;6229743;28;20097;-72
2023/06/15 13:49:28;;;;;;;5.00;3.25;;;41.00;18.20;;;;;;6247306;28;20554;-73
2023/06/15 13:52:29;;;;;;;11.77;3.00;;;41.10;18.40;;;;;;6245403;28;20061;-73
2023/06/15 13:55:30;;;;;;;7.25;3.13;;;41.70;18.00;;;;;;6245632;28;20030;-72
2023/06/15 13:58:31;;;;;;;4.43;2.95;;;42.00;17.50;;;;;;6246840;28;20030;-71
2023/06/15 14:01:32;;;;;;;5.82;3.45;;;42.40;17.40;;;;;;6244664;28;20034;-71
2023/06/15 14:04:34;;;;;;;4.63;3.45;;;42.90;17.10;;;;;;6246808;28;20037;-72
2023/06/15 14:07:37;;;;;;;5.13;3.15;;;43.20;16.70;;;;;;6245329;28;20075;-72
2023/06/15 14:10:38;;;;;;;5.82;3.08;;;43.10;16.80;;;;;;6241207;28;20094;-71
2023/06/15 14:13:39;;;;;;;6.07;3.35;;;43.10;16.80;;;;;;6243026;28;20417;-72
2023/06/15 14:16:40;;;;;;;7.85;3.15;;;43.10;16.70;;;;;;6242590;28;20380;-73
2023/06/15 14:19:40;;;;;;;7.20;2.90;;;43.00;16.70;;;;;;6242609;28;20036;-72
2023/06/15 14:22:41;;;;;;;5.68;2.80;;;42.30;17.10;;;;;;6240102;28;20045;-72
2023/06/15 14:25:43;;;;;;;7.03;2.80;;;42.40;17.40;;;;;;6242366;28;20091;-73
2023/06/15 14:28:44;;;;;;;7.20;3.38;;;42.80;17.00;;;;;;6242386;28;20029;-72
2023/06/15 14:31:46;;;;;;;6.43;3.40;;;43.10;16.60;;;;;;6241901;28;20060;-71
2023/06/15 14:34:47;;;;;;;10.30;2.95;;;43.60;16.60;;;;;;6240590;28;20414;-72
2023/06/15 14:37:51;;;;;;;5.70;3.20;;;44.00;16.40;;;;;;6240492;28;20347;-72
2023/06/15 14:40:52;;;;;;;7.10;3.30;;;44.40;16.10;;;;;;6242091;28;20203;-73
2023/06/15 14:43:52;;;;;;;7.18;3.05;;;44.60;15.80;;;;;;6240256;28;20039;-73
2023/06/15 14:46:53;;;;;;;9.23;2.78;;;44.40;15.70;;;;;;6240559;28;20517;-72
2023/06/15 14:49:54;;;;;;;8.60;2.92;;;43.90;15.80;;;;;;6241640;28;20519;-73
2023/06/15 14:52:55;;;;;;;8.77;2.95;;;43.70;16.00;;;;;;6241270;28;20037;-70
2023/06/15 14:55:56;;;;;;;6.97;2.70;;;43.60;15.90;;;;;;6241406;28;20053;-72
2023/06/15 14:58:58;;;;;;;5.10;2.97;;;43.40;16.10;;;;;;6239943;28;20438;-72
2023/06/15 15:01:59;;;;;;;5.28;3.38;;;43.40;16.00;;;;;;6240656;28;20682;-73
2023/06/15 15:05:00;;;;;;;6.75;3.00;;;43.40;16.10;;;;;;6240085;28;20041;-72
2023/06/15 15:08:01;;;;;;;9.63;3.03;;;43.60;16.00;;;;;;6241249;28;20026;-71
2023/06/15 15:11:03;;;;;;;4.85;3.05;;;43.60;15.90;;;;;;6223355;28;20128;-73
2023/06/15 15:14:05;;;;;;;6.18;2.90;;;43.50;16.00;;;;;;6239438;28;20522;-73
2023/06/15 15:17:06;;;;;;;5.88;2.72;;;43.40;16.00;;;;;;6241344;28;20041;-73
2023/06/15 15:20:07;;;;;;;3.75;3.00;;;43.10;16.30;;;;;;6240895;28;20151;-72
2023/06/15 15:23:08;;;;;;;5.97;2.90;;;43.10;16.30;;;;;;6240279;28;20112;-72
2023/06/15 15:26:09;;;;;;;5.43;2.88;;;43.00;16.20;;;;;;6240751;28;20076;-71
2023/06/15 15:29:10;;;;;;;7.70;2.83;;;43.10;16.20;;;;;;6239337;28;20636;-72
2023/06/15 15:32:11;;;;;;;6.13;2.65;;;43.00;16.30;;;;;;6238820;28;20021;-72
2023/06/15 15:35:11;;;;;;;4.47;2.50;;;43.00;16.30;;;;;;6238740;28;20026;-72
2023/06/15 15:38:12;;;;;;;6.10;3.30;;;43.20;16.20;;;;;;6239275;28;20604;-72
2023/06/15 15:41:13;;;;;;;6.20;2.90;;;43.50;16.10;;;;;;6240590;28;20390;-71
2023/06/15 15:44:14;;;;;;;6.43;2.80;;;43.60;16.10;;;;;;6240311;28;20045;-72
2023/06/15 15:47:15;;;;;;;6.53;2.85;;;43.60;16.10;;;;;;6239844;28;20033;-71